sensor_id;sensor_type;location;lat;lon;timestamp;temperature;humidity
3846;DHT22;1938;50.812;7.738;2022-10-16T00:01:27;13.40;99.90
3846;DHT22;1938;50.812;7.738;2022-10-16T00:03:54;13.40;99.90
3846;DHT22;1938;50.812;7.738;2022-10-16T00:06:21;13.40;99.90
3846;DHT22;1938;50.812;7.738;2022-10-16T00:08:47;13.50;99.90
3846;DHT22;1938;50.812;7.738;2022-10-16T00:11:17;13.40;99.90
3846;DHT22;1938;50.812;7.738;2022-10-16T00:13:44;13.40;99.90
3846;DHT22;1938;50.812;7.738;2022-10-16T00:16:12;13.50;99.90
3846;DHT22;1938;50.812;7.738;2022-10-16T00:18:38;13.50;99.90
3846;DHT22;1938;50.812;7.738;2022-10-16T00:21:09;13.50;99.90
3846;DHT22;1938;50.812;7.738;2022-10-16T00:23:35;13.50;99.90
3846;DHT22;1938;50.812;7.738;2022-10-16T00:26:07;13.50;99.90
3846;DHT22;1938;50.812;7.738;2022-10-16T00:28:33;13.50;99.90
3846;DHT22;1938;50.812;7.738;2022-10-16T00:31:06;13.50;99.90
3846;DHT22;1938;50.812;7.738;2022-10-16T00:33:33;13.50;99.90
3846;DHT22;1938;50.812;7.738;2022-10-16T00:36:00;13.40;99.90
3846;DHT22;1938;50.812;7.738;2022-10-16T00:38:26;13.50;99.90
3846;DHT22;1938;50.812;7.738;2022-10-16T00:40:51;13.50;99.90
3846;DHT22;1938;50.812;7.738;2022-10-16T00:46:02;13.60;99.90
3846;DHT22;1938;50.812;7.738;2022-10-16T00:48:29;13.50;99.90
3846;DHT22;1938;50.812;7.738;2022-10-16T00:50:57;13.50;99.90
3846;DHT22;1938;50.812;7.738;2022-10-16T00:53:24;13.50;99.90
3846;DHT22;1938;50.812;7.738;2022-10-16T00:55:50;13.50;99.90
3846;DHT22;1938;50.812;7.738;2022-10-16T00:58:16;13.40;99.90
3846;DHT22;1938;50.812;7.738;2022-10-16T01:00:42;13.40;99.90
3846;DHT22;1938;50.812;7.738;2022-10-16T01:06:09;13.30;99.90
3846;DHT22;1938;50.812;7.738;2022-10-16T01:13:53;13.30;99.90
3846;DHT22;1938;50.812;7.738;2022-10-16T01:16:34;13.30;99.90
3846;DHT22;1938;50.812;7.738;2022-10-16T01:19:12;13.30;99.90
3846;DHT22;1938;50.812;7.738;2022-10-16T01:21:43;13.30;99.90
3846;DHT22;1938;50.812;7.738;2022-10-16T01:32:10;13.20;99.90
3846;DHT22;1938;50.812;7.738;2022-10-16T01:34:44;12.90;99.90
3846;DHT22;1938;50.812;7.738;2022-10-16T01:37:15;12.70;99.90
3846;DHT22;1938;50.812;7.738;2022-10-16T01:39:46;12.60;99.90
3846;DHT22;1938;50.812;7.738;2022-10-16T01:42:17;12.60;99.90
3846;DHT22;1938;50.812;7.738;2022-10-16T01:44:45;12.50;99.90
3846;DHT22;1938;50.812;7.738;2022-10-16T01:50:37;12.40;99.90
3846;DHT22;1938;50.812;7.738;2022-10-16T01:53:05;12.30;99.90
3846;DHT22;1938;50.812;7.738;2022-10-16T01:55:37;12.30;99.90
3846;DHT22;1938;50.812;7.738;2022-10-16T01:58:05;12.40;99.90
3846;DHT22;1938;50.812;7.738;2022-10-16T02:00:34;12.30;99.90
3846;DHT22;1938;50.812;7.738;2022-10-16T02:03:02;12.30;99.90
3846;DHT22;1938;50.812;7.738;2022-10-16T02:08:11;12.20;99.90
3846;DHT22;1938;50.812;7.738;2022-10-16T02:10:37;12.20;99.90
3846;DHT22;1938;50.812;7.738;2022-10-16T02:13:23;12.30;99.90
3846;DHT22;1938;50.812;7.738;2022-10-16T02:15:51;12.30;99.90
3846;DHT22;1938;50.812;7.738;2022-10-16T02:18:16;12.40;99.90
3846;DHT22;1938;50.812;7.738;2022-10-16T02:20:52;12.50;99.90
3846;DHT22;1938;50.812;7.738;2022-10-16T02:23:29;12.60;99.90
3846;DHT22;1938;50.812;7.738;2022-10-16T02:25:56;12.60;99.90
3846;DHT22;1938;50.812;7.738;2022-10-16T02:28:34;12.70;99.90
3846;DHT22;1938;50.812;7.738;2022-10-16T02:31:04;12.80;99.90
3846;DHT22;1938;50.812;7.738;2022-10-16T02:33:32;12.80;99.90
3846;DHT22;1938;50.812;7.738;2022-10-16T02:35:59;12.80;99.90
3846;DHT22;1938;50.812;7.738;2022-10-16T02:38:25;12.90;99.90
3846;DHT22;1938;50.812;7.738;2022-10-16T02:40:52;12.90;99.90
3846;DHT22;1938;50.812;7.738;2022-10-16T02:43:18;13.00;99.90
3846;DHT22;1938;50.812;7.738;2022-10-16T02:45:44;13.10;99.90
3846;DHT22;1938;50.812;7.738;2022-10-16T02:48:10;13.10;99.90
3846;DHT22;1938;50.812;7.738;2022-10-16T02:50:35;13.20;99.90
3846;DHT22;1938;50.812;7.738;2022-10-16T02:53:02;13.20;99.90
3846;DHT22;1938;50.812;7.738;2022-10-16T02:55:28;13.30;99.90
3846;DHT22;1938;50.812;7.738;2022-10-16T02:57:53;13.30;99.90
3846;DHT22;1938;50.812;7.738;2022-10-16T03:00:20;13.40;99.90
3846;DHT22;1938;50.812;7.738;2022-10-16T03:02:46;13.30;99.90
3846;DHT22;1938;50.812;7.738;2022-10-16T03:05:12;13.30;99.90
3846;DHT22;1938;50.812;7.738;2022-10-16T03:07:37;13.40;99.90
3846;DHT22;1938;50.812;7.738;2022-10-16T03:10:03;13.40;99.90
3846;DHT22;1938;50.812;7.738;2022-10-16T03:12:29;13.40;99.90
3846;DHT22;1938;50.812;7.738;2022-10-16T03:14:56;13.40;99.90
3846;DHT22;1938;50.812;7.738;2022-10-16T03:17:22;13.40;99.90
3846;DHT22;1938;50.812;7.738;2022-10-16T03:19:48;13.50;99.90
3846;DHT22;1938;50.812;7.738;2022-10-16T03:22:13;13.50;99.90
3846;DHT22;1938;50.812;7.738;2022-10-16T03:24:39;13.50;99.90
3846;DHT22;1938;50.812;7.738;2022-10-16T03:27:04;13.50;99.90
3846;DHT22;1938;50.812;7.738;2022-10-16T03:29:30;13.50;99.90
3846;DHT22;1938;50.812;7.738;2022-10-16T03:31:57;13.50;99.90
3846;DHT22;1938;50.812;7.738;2022-10-16T03:34:23;13.50;99.90
3846;DHT22;1938;50.812;7.738;2022-10-16T03:36:49;13.50;99.90
3846;DHT22;1938;50.812;7.738;2022-10-16T03:39:15;13.50;99.90
3846;DHT22;1938;50.812;7.738;2022-10-16T03:41:40;13.50;99.90
3846;DHT22;1938;50.812;7.738;2022-10-16T03:44:06;13.50;99.90
3846;DHT22;1938;50.812;7.738;2022-10-16T03:46:33;13.50;99.90
3846;DHT22;1938;50.812;7.738;2022-10-16T03:48:58;13.50;99.90
3846;DHT22;1938;50.812;7.738;2022-10-16T03:51:24;13.50;99.90
3846;DHT22;1938;50.812;7.738;2022-10-16T03:53:49;13.50;99.90
3846;DHT22;1938;50.812;7.738;2022-10-16T03:56:15;13.50;99.90
3846;DHT22;1938;50.812;7.738;2022-10-16T03:58:40;13.60;99.90
3846;DHT22;1938;50.812;7.738;2022-10-16T04:01:06;13.60;99.90
3846;DHT22;1938;50.812;7.738;2022-10-16T04:03:31;13.60;99.90
3846;DHT22;1938;50.812;7.738;2022-10-16T04:05:57;13.50;99.90
3846;DHT22;1938;50.812;7.738;2022-10-16T04:08:23;13.50;99.90
3846;DHT22;1938;50.812;7.738;2022-10-16T04:10:49;13.50;99.90
3846;DHT22;1938;50.812;7.738;2022-10-16T04:13:15;13.50;99.90
3846;DHT22;1938;50.812;7.738;2022-10-16T04:15:41;13.40;99.90
3846;DHT22;1938;50.812;7.738;2022-10-16T04:18:07;13.40;99.90
3846;DHT22;1938;50.812;7.738;2022-10-16T04:20:33;13.40;99.90
3846;DHT22;1938;50.812;7.738;2022-10-16T04:22:58;13.40;99.90
3846;DHT22;1938;50.812;7.738;2022-10-16T04:25:25;13.40;99.90
3846;DHT22;1938;50.812;7.738;2022-10-16T04:27:53;13.40;99.90
3846;DHT22;1938;50.812;7.738;2022-10-16T04:30:19;13.40;99.90
3846;DHT22;1938;50.812;7.738;2022-10-16T04:32:51;13.40;99.90
3846;DHT22;1938;50.812;7.738;2022-10-16T04:35:18;13.50;99.90
3846;DHT22;1938;50.812;7.738;2022-10-16T04:37:44;13.50;99.90
3846;DHT22;1938;50.812;7.738;2022-10-16T04:40:09;13.50;99.90
3846;DHT22;1938;50.812;7.738;2022-10-16T04:42:35;13.50;99.90
3846;DHT22;1938;50.812;7.738;2022-10-16T04:45:01;13.50;99.90
3846;DHT22;1938;50.812;7.738;2022-10-16T04:47:26;13.50;99.90
3846;DHT22;1938;50.812;7.738;2022-10-16T04:49:52;13.50;99.90
3846;DHT22;1938;50.812;7.738;2022-10-16T04:52:17;13.60;99.90
3846;DHT22;1938;50.812;7.738;2022-10-16T04:54:44;13.60;99.90
3846;DHT22;1938;50.812;7.738;2022-10-16T04:57:10;13.60;99.90
3846;DHT22;1938;50.812;7.738;2022-10-16T04:59:36;13.60;99.90
3846;DHT22;1938;50.812;7.738;2022-10-16T05:02:03;13.60;99.90
3846;DHT22;1938;50.812;7.738;2022-10-16T05:04:29;13.60;99.90
3846;DHT22;1938;50.812;7.738;2022-10-16T05:06:54;13.60;99.90
3846;DHT22;1938;50.812;7.738;2022-10-16T05:09:20;13.60;99.90
3846;DHT22;1938;50.812;7.738;2022-10-16T05:11:45;13.60;99.90
3846;DHT22;1938;50.812;7.738;2022-10-16T05:14:12;13.60;99.90
3846;DHT22;1938;50.812;7.738;2022-10-16T05:16:38;13.60;99.90
3846;DHT22;1938;50.812;7.738;2022-10-16T05:19:03;13.60;99.90
3846;DHT22;1938;50.812;7.738;2022-10-16T05:21:29;13.60;99.90
3846;DHT22;1938;50.812;7.738;2022-10-16T05:23:55;13.60;99.90
3846;DHT22;1938;50.812;7.738;2022-10-16T05:26:21;13.60;99.90
3846;DHT22;1938;50.812;7.738;2022-10-16T05:28:47;13.60;99.90
3846;DHT22;1938;50.812;7.738;2022-10-16T05:31:12;13.60;99.90
3846;DHT22;1938;50.812;7.738;2022-10-16T05:33:38;13.60;99.90
3846;DHT22;1938;50.812;7.738;2022-10-16T05:36:05;13.60;99.90
3846;DHT22;1938;50.812;7.738;2022-10-16T05:38:33;13.60;99.90
3846;DHT22;1938;50.812;7.738;2022-10-16T05:40:59;13.60;99.90
3846;DHT22;1938;50.812;7.738;2022-10-16T05:43:26;13.50;99.90
3846;DHT22;1938;50.812;7.738;2022-10-16T05:46:02;13.50;99.90
3846;DHT22;1938;50.812;7.738;2022-10-16T05:48:29;13.50;99.90
3846;DHT22;1938;50.812;7.738;2022-10-16T05:51:03;13.60;99.90
3846;DHT22;1938;50.812;7.738;2022-10-16T05:53:30;13.60;99.90
3846;DHT22;1938;50.812;7.738;2022-10-16T05:55:56;13.50;99.90
3846;DHT22;1938;50.812;7.738;2022-10-16T05:58:22;13.50;99.90
3846;DHT22;1938;50.812;7.738;2022-10-16T06:00:59;13.60;99.90
3846;DHT22;1938;50.812;7.738;2022-10-16T06:03:25;13.50;99.90
3846;DHT22;1938;50.812;7.738;2022-10-16T06:05:51;13.50;99.90
3846;DHT22;1938;50.812;7.738;2022-10-16T06:08:19;13.60;99.90
3846;DHT22;1938;50.812;7.738;2022-10-16T06:10:47;13.60;99.90
3846;DHT22;1938;50.812;7.738;2022-10-16T06:13:13;13.60;99.90
3846;DHT22;1938;50.812;7.738;2022-10-16T06:15:40;13.60;99.90
3846;DHT22;1938;50.812;7.738;2022-10-16T06:18:10;13.60;99.90
3846;DHT22;1938;50.812;7.738;2022-10-16T06:20:36;13.60;99.90
3846;DHT22;1938;50.812;7.738;2022-10-16T06:23:02;13.70;99.90
3846;DHT22;1938;50.812;7.738;2022-10-16T06:25:30;13.70;99.90
3846;DHT22;1938;50.812;7.738;2022-10-16T06:27:57;13.70;99.90
3846;DHT22;1938;50.812;7.738;2022-10-16T06:30:22;13.70;99.90
3846;DHT22;1938;50.812;7.738;2022-10-16T06:32:48;13.80;99.90
3846;DHT22;1938;50.812;7.738;2022-10-16T06:35:13;13.80;99.90
3846;DHT22;1938;50.812;7.738;2022-10-16T06:37:39;13.80;99.90
3846;DHT22;1938;50.812;7.738;2022-10-16T06:40:06;13.90;99.90
3846;DHT22;1938;50.812;7.738;2022-10-16T06:42:31;13.90;99.90
3846;DHT22;1938;50.812;7.738;2022-10-16T06:44:57;13.90;99.90
3846;DHT22;1938;50.812;7.738;2022-10-16T06:47:22;13.90;99.90
3846;DHT22;1938;50.812;7.738;2022-10-16T06:49:49;13.90;99.90
3846;DHT22;1938;50.812;7.738;2022-10-16T06:52:15;14.00;99.90
3846;DHT22;1938;50.812;7.738;2022-10-16T06:54:40;14.00;99.90
3846;DHT22;1938;50.812;7.738;2022-10-16T06:57:06;14.00;99.90
3846;DHT22;1938;50.812;7.738;2022-10-16T06:59:32;14.00;99.90
3846;DHT22;1938;50.812;7.738;2022-10-16T07:01:58;14.00;99.90
3846;DHT22;1938;50.812;7.738;2022-10-16T07:04:24;14.00;99.90
3846;DHT22;1938;50.812;7.738;2022-10-16T07:06:49;14.00;99.90
3846;DHT22;1938;50.812;7.738;2022-10-16T07:09:16;14.00;99.90
3846;DHT22;1938;50.812;7.738;2022-10-16T07:11:43;14.00;99.90
3846;DHT22;1938;50.812;7.738;2022-10-16T07:14:17;14.00;99.90
3846;DHT22;1938;50.812;7.738;2022-10-16T07:16:43;14.00;99.90
3846;DHT22;1938;50.812;7.738;2022-10-16T07:19:09;14.10;99.90
3846;DHT22;1938;50.812;7.738;2022-10-16T07:21:37;14.20;99.90
3846;DHT22;1938;50.812;7.738;2022-10-16T07:24:06;14.40;99.90
3846;DHT22;1938;50.812;7.738;2022-10-16T07:26:35;14.70;99.90
3846;DHT22;1938;50.812;7.738;2022-10-16T07:29:01;14.90;99.90
3846;DHT22;1938;50.812;7.738;2022-10-16T07:31:28;15.10;99.90
3846;DHT22;1938;50.812;7.738;2022-10-16T07:33:54;15.20;99.90
3846;DHT22;1938;50.812;7.738;2022-10-16T07:36:20;15.40;99.90
3846;DHT22;1938;50.812;7.738;2022-10-16T07:38:47;15.50;99.90
3846;DHT22;1938;50.812;7.738;2022-10-16T07:41:18;15.60;99.90
3846;DHT22;1938;50.812;7.738;2022-10-16T07:43:49;15.70;93.40
3846;DHT22;1938;50.812;7.738;2022-10-16T07:46:16;15.80;42.30
3846;DHT22;1938;50.812;7.738;2022-10-16T07:48:42;15.90;12.40
3846;DHT22;1938;50.812;7.738;2022-10-16T07:51:21;16.00;1.00
3846;DHT22;1938;50.812;7.738;2022-10-16T07:53:47;16.30;4.60
3846;DHT22;1938;50.812;7.738;2022-10-16T07:56:13;16.60;1.00
3846;DHT22;1938;50.812;7.738;2022-10-16T07:58:39;16.90;99.90
3846;DHT22;1938;50.812;7.738;2022-10-16T08:01:08;17.10;99.90
3846;DHT22;1938;50.812;7.738;2022-10-16T08:03:34;17.10;1.00
3846;DHT22;1938;50.812;7.738;2022-10-16T08:06:00;17.20;99.90
3846;DHT22;1938;50.812;7.738;2022-10-16T08:08:26;17.30;99.90
3846;DHT22;1938;50.812;7.738;2022-10-16T08:10:53;17.60;99.90
3846;DHT22;1938;50.812;7.738;2022-10-16T08:13:19;18.00;3.70
3846;DHT22;1938;50.812;7.738;2022-10-16T08:15:45;18.30;99.90
3846;DHT22;1938;50.812;7.738;2022-10-16T08:18:12;18.50;99.90
3846;DHT22;1938;50.812;7.738;2022-10-16T08:20:40;18.80;99.90
3846;DHT22;1938;50.812;7.738;2022-10-16T08:23:06;19.00;1.00
3846;DHT22;1938;50.812;7.738;2022-10-16T08:25:34;19.40;1.00
3846;DHT22;1938;50.812;7.738;2022-10-16T08:28:00;20.10;99.90
3846;DHT22;1938;50.812;7.738;2022-10-16T08:30:26;20.40;43.20
3846;DHT22;1938;50.812;7.738;2022-10-16T08:32:52;20.60;1.00
3846;DHT22;1938;50.812;7.738;2022-10-16T08:35:17;20.70;1.00
3846;DHT22;1938;50.812;7.738;2022-10-16T08:37:43;20.80;1.00
3846;DHT22;1938;50.812;7.738;2022-10-16T08:40:33;21.20;1.00
3846;DHT22;1938;50.812;7.738;2022-10-16T08:45:54;22.10;99.90
3846;DHT22;1938;50.812;7.738;2022-10-16T08:48:54;22.30;99.90
3846;DHT22;1938;50.812;7.738;2022-10-16T08:51:25;22.40;24.80
3846;DHT22;1938;50.812;7.738;2022-10-16T08:53:56;22.20;1.00
3846;DHT22;1938;50.812;7.738;2022-10-16T08:56:23;21.90;1.00
3846;DHT22;1938;50.812;7.738;2022-10-16T08:58:50;21.50;58.20
3846;DHT22;1938;50.812;7.738;2022-10-16T09:01:19;21.40;96.30
3846;DHT22;1938;50.812;7.738;2022-10-16T09:18:11;21.80;99.90
3846;DHT22;1938;50.812;7.738;2022-10-16T09:23:30;22.40;6.30
3846;DHT22;1938;50.812;7.738;2022-10-16T09:25:58;22.20;16.40
3846;DHT22;1938;50.812;7.738;2022-10-16T09:28:23;22.10;49.50
3846;DHT22;1938;50.812;7.738;2022-10-16T09:30:50;22.00;37.70
3846;DHT22;1938;50.812;7.738;2022-10-16T09:33:19;21.70;18.80
3846;DHT22;1938;50.812;7.738;2022-10-16T09:35:49;21.30;74.40
3846;DHT22;1938;50.812;7.738;2022-10-16T09:38:32;20.90;74.10
3846;DHT22;1938;50.812;7.738;2022-10-16T09:41:00;20.60;99.90
3846;DHT22;1938;50.812;7.738;2022-10-16T09:43:36;20.50;99.90
3846;DHT22;1938;50.812;7.738;2022-10-16T09:46:21;20.50;99.90
3846;DHT22;1938;50.812;7.738;2022-10-16T09:48:51;20.40;99.90
3846;DHT22;1938;50.812;7.738;2022-10-16T09:51:36;20.30;99.90
3846;DHT22;1938;50.812;7.738;2022-10-16T09:54:17;20.20;99.90
3846;DHT22;1938;50.812;7.738;2022-10-16T09:56:44;20.00;99.90
3846;DHT22;1938;50.812;7.738;2022-10-16T09:59:19;20.00;99.90
3846;DHT22;1938;50.812;7.738;2022-10-16T10:01:50;20.10;99.90
3846;DHT22;1938;50.812;7.738;2022-10-16T10:04:19;20.10;99.90
3846;DHT22;1938;50.812;7.738;2022-10-16T10:06:46;20.20;1.00
3846;DHT22;1938;50.812;7.738;2022-10-16T10:09:29;20.20;1.00
3846;DHT22;1938;50.812;7.738;2022-10-16T10:12:00;20.20;1.00
3846;DHT22;1938;50.812;7.738;2022-10-16T10:19:41;20.90;99.90
3846;DHT22;1938;50.812;7.738;2022-10-16T10:22:18;21.00;99.90
3846;DHT22;1938;50.812;7.738;2022-10-16T10:27:49;21.50;29.80
3846;DHT22;1938;50.812;7.738;2022-10-16T10:33:46;21.60;7.70
3846;DHT22;1938;50.812;7.738;2022-10-16T10:39:13;21.70;1.00
3846;DHT22;1938;50.812;7.738;2022-10-16T10:42:08;22.00;1.00
3846;DHT22;1938;50.812;7.738;2022-10-16T10:50:25;22.10;1.00
3846;DHT22;1938;50.812;7.738;2022-10-16T10:55:33;21.80;1.00
3846;DHT22;1938;50.812;7.738;2022-10-16T11:06:58;21.30;1.00
3846;DHT22;1938;50.812;7.738;2022-10-16T11:09:36;21.40;1.00
3846;DHT22;1938;50.812;7.738;2022-10-16T11:17:27;21.10;1.00
3846;DHT22;1938;50.812;7.738;2022-10-16T11:19:58;20.90;1.00
3846;DHT22;1938;50.812;7.738;2022-10-16T11:22:32;20.60;1.00
3846;DHT22;1938;50.812;7.738;2022-10-16T11:25:32;20.50;1.00
3846;DHT22;1938;50.812;7.738;2022-10-16T11:31:00;20.80;1.00
3846;DHT22;1938;50.812;7.738;2022-10-16T11:33:37;20.80;1.00
3846;DHT22;1938;50.812;7.738;2022-10-16T11:36:25;20.70;1.00
3846;DHT22;1938;50.812;7.738;2022-10-16T11:39:24;20.60;1.00
3846;DHT22;1938;50.812;7.738;2022-10-16T11:42:07;20.50;1.00
3846;DHT22;1938;50.812;7.738;2022-10-16T11:47:51;20.40;1.00
3846;DHT22;1938;50.812;7.738;2022-10-16T11:50:43;20.40;1.00
3846;DHT22;1938;50.812;7.738;2022-10-16T11:53:38;20.30;1.00
3846;DHT22;1938;50.812;7.738;2022-10-16T11:56:05;20.20;1.00
3846;DHT22;1938;50.812;7.738;2022-10-16T11:58:36;20.10;2.10
3846;DHT22;1938;50.812;7.738;2022-10-16T12:01:19;20.10;1.00
3846;DHT22;1938;50.812;7.738;2022-10-16T12:03:58;20.00;9.00
3846;DHT22;1938;50.812;7.738;2022-10-16T12:06:43;20.00;1.00
3846;DHT22;1938;50.812;7.738;2022-10-16T12:11:54;20.10;61.00
3846;DHT22;1938;50.812;7.738;2022-10-16T12:16:56;19.90;1.00
3846;DHT22;1938;50.812;7.738;2022-10-16T12:19:23;20.00;51.10
3846;DHT22;1938;50.812;7.738;2022-10-16T12:21:51;20.00;57.60
3846;DHT22;1938;50.812;7.738;2022-10-16T12:24:35;20.10;1.00
3846;DHT22;1938;50.812;7.738;2022-10-16T12:27:03;20.10;1.00
3846;DHT22;1938;50.812;7.738;2022-10-16T12:29:34;20.20;1.00
3846;DHT22;1938;50.812;7.738;2022-10-16T12:32:02;20.30;1.00
3846;DHT22;1938;50.812;7.738;2022-10-16T12:37:27;20.60;1.00
3846;DHT22;1938;50.812;7.738;2022-10-16T12:39:54;20.80;1.00
3846;DHT22;1938;50.812;7.738;2022-10-16T12:44:53;21.00;1.00
3846;DHT22;1938;50.812;7.738;2022-10-16T12:47:22;20.80;1.00
3846;DHT22;1938;50.812;7.738;2022-10-16T12:49:53;20.80;1.00
3846;DHT22;1938;50.812;7.738;2022-10-16T12:52:35;20.70;1.00
3846;DHT22;1938;50.812;7.738;2022-10-16T12:55:01;20.60;1.00
3846;DHT22;1938;50.812;7.738;2022-10-16T12:57:39;20.60;1.00
3846;DHT22;1938;50.812;7.738;2022-10-16T13:00:28;20.60;1.00
3846;DHT22;1938;50.812;7.738;2022-10-16T13:11:37;20.50;1.00
3846;DHT22;1938;50.812;7.738;2022-10-16T13:14:26;20.50;1.00
3846;DHT22;1938;50.812;7.738;2022-10-16T13:30:30;20.50;1.00
3846;DHT22;1938;50.812;7.738;2022-10-16T13:33:15;20.40;1.00
3846;DHT22;1938;50.812;7.738;2022-10-16T13:35:55;20.50;1.00
3846;DHT22;1938;50.812;7.738;2022-10-16T13:38:23;20.50;1.00
3846;DHT22;1938;50.812;7.738;2022-10-16T13:41:04;20.60;1.00
3846;DHT22;1938;50.812;7.738;2022-10-16T13:43:39;20.60;1.00
3846;DHT22;1938;50.812;7.738;2022-10-16T13:46:13;20.50;1.00
3846;DHT22;1938;50.812;7.738;2022-10-16T13:48:39;20.40;1.00
3846;DHT22;1938;50.812;7.738;2022-10-16T13:53:35;20.40;1.00
3846;DHT22;1938;50.812;7.738;2022-10-16T13:56:03;20.50;19.70
3846;DHT22;1938;50.812;7.738;2022-10-16T13:58:29;20.50;1.00
3846;DHT22;1938;50.812;7.738;2022-10-16T14:00:57;20.50;1.00
3846;DHT22;1938;50.812;7.738;2022-10-16T14:03:24;20.50;1.00
3846;DHT22;1938;50.812;7.738;2022-10-16T14:05:53;20.50;1.00
3846;DHT22;1938;50.812;7.738;2022-10-16T14:08:19;20.30;13.10
3846;DHT22;1938;50.812;7.738;2022-10-16T14:10:52;20.40;14.40
3846;DHT22;1938;50.812;7.738;2022-10-16T14:13:23;20.40;3.20
3846;DHT22;1938;50.812;7.738;2022-10-16T14:15:51;20.30;11.50
3846;DHT22;1938;50.812;7.738;2022-10-16T14:18:22;20.30;21.00
3846;DHT22;1938;50.812;7.738;2022-10-16T14:20:49;20.30;26.50
3846;DHT22;1938;50.812;7.738;2022-10-16T14:25:43;20.00;21.50
3846;DHT22;1938;50.812;7.738;2022-10-16T14:28:18;20.00;84.00
3846;DHT22;1938;50.812;7.738;2022-10-16T14:30:51;20.00;99.90
3846;DHT22;1938;50.812;7.738;2022-10-16T14:36:11;19.80;99.90
3846;DHT22;1938;50.812;7.738;2022-10-16T14:38:39;19.70;99.90
3846;DHT22;1938;50.812;7.738;2022-10-16T14:41:05;19.60;99.90
3846;DHT22;1938;50.812;7.738;2022-10-16T14:43:42;19.50;99.90
3846;DHT22;1938;50.812;7.738;2022-10-16T14:46:16;19.40;99.90
3846;DHT22;1938;50.812;7.738;2022-10-16T14:48:46;19.40;99.90
3846;DHT22;1938;50.812;7.738;2022-10-16T14:51:17;19.40;99.90
3846;DHT22;1938;50.812;7.738;2022-10-16T14:53:44;19.40;99.90
3846;DHT22;1938;50.812;7.738;2022-10-16T14:56:19;19.30;99.90
3846;DHT22;1938;50.812;7.738;2022-10-16T14:58:45;19.30;99.90
3846;DHT22;1938;50.812;7.738;2022-10-16T15:01:11;19.30;1.00
3846;DHT22;1938;50.812;7.738;2022-10-16T15:03:38;19.20;1.00
3846;DHT22;1938;50.812;7.738;2022-10-16T15:06:10;19.20;26.60
3846;DHT22;1938;50.812;7.738;2022-10-16T15:08:36;19.10;99.90
3846;DHT22;1938;50.812;7.738;2022-10-16T15:11:02;19.10;99.90
3846;DHT22;1938;50.812;7.738;2022-10-16T15:13:27;19.00;99.90
3846;DHT22;1938;50.812;7.738;2022-10-16T15:15:53;19.00;99.90
3846;DHT22;1938;50.812;7.738;2022-10-16T15:18:19;18.90;99.90
3846;DHT22;1938;50.812;7.738;2022-10-16T15:20:50;18.80;1.00
3846;DHT22;1938;50.812;7.738;2022-10-16T15:23:19;18.80;1.00
3846;DHT22;1938;50.812;7.738;2022-10-16T15:25:52;18.80;1.00
3846;DHT22;1938;50.812;7.738;2022-10-16T15:28:19;18.70;99.90
3846;DHT22;1938;50.812;7.738;2022-10-16T15:30:46;18.70;1.00
3846;DHT22;1938;50.812;7.738;2022-10-16T15:33:16;18.60;1.00
3846;DHT22;1938;50.812;7.738;2022-10-16T15:35:42;18.50;99.90
3846;DHT22;1938;50.812;7.738;2022-10-16T15:38:12;18.50;1.00
3846;DHT22;1938;50.812;7.738;2022-10-16T15:40:38;18.40;65.10
3846;DHT22;1938;50.812;7.738;2022-10-16T15:43:03;18.40;1.00
3846;DHT22;1938;50.812;7.738;2022-10-16T15:45:29;18.40;38.20
3846;DHT22;1938;50.812;7.738;2022-10-16T15:47:54;18.30;99.90
3846;DHT22;1938;50.812;7.738;2022-10-16T15:50:20;18.30;76.10
3846;DHT22;1938;50.812;7.738;2022-10-16T15:52:46;18.20;99.90
3846;DHT22;1938;50.812;7.738;2022-10-16T15:55:13;18.20;99.90
3846;DHT22;1938;50.812;7.738;2022-10-16T15:57:39;18.10;99.90
3846;DHT22;1938;50.812;7.738;2022-10-16T16:00:09;18.10;1.00
3846;DHT22;1938;50.812;7.738;2022-10-16T16:02:35;18.00;1.00
3846;DHT22;1938;50.812;7.738;2022-10-16T16:05:02;18.00;1.00
3846;DHT22;1938;50.812;7.738;2022-10-16T16:07:31;17.90;1.00
3846;DHT22;1938;50.812;7.738;2022-10-16T16:09:57;17.80;99.90
3846;DHT22;1938;50.812;7.738;2022-10-16T16:12:22;17.70;99.90
3846;DHT22;1938;50.812;7.738;2022-10-16T16:14:48;17.60;1.00
3846;DHT22;1938;50.812;7.738;2022-10-16T16:17:15;17.50;17.00
3846;DHT22;1938;50.812;7.738;2022-10-16T16:19:40;17.50;99.90
3846;DHT22;1938;50.812;7.738;2022-10-16T16:22:06;17.50;99.90
3846;DHT22;1938;50.812;7.738;2022-10-16T16:24:31;17.40;99.90
3846;DHT22;1938;50.812;7.738;2022-10-16T16:26:57;17.40;99.90
3846;DHT22;1938;50.812;7.738;2022-10-16T16:29:23;17.40;99.90
3846;DHT22;1938;50.812;7.738;2022-10-16T16:31:48;17.40;1.00
3846;DHT22;1938;50.812;7.738;2022-10-16T16:34:14;17.40;1.00
3846;DHT22;1938;50.812;7.738;2022-10-16T16:36:40;17.30;1.00
3846;DHT22;1938;50.812;7.738;2022-10-16T16:39:06;17.30;19.20
3846;DHT22;1938;50.812;7.738;2022-10-16T16:41:33;17.20;99.90
3846;DHT22;1938;50.812;7.738;2022-10-16T16:44:04;17.20;99.90
3846;DHT22;1938;50.812;7.738;2022-10-16T16:46:31;17.20;1.00
3846;DHT22;1938;50.812;7.738;2022-10-16T16:48:58;17.10;1.00
3846;DHT22;1938;50.812;7.738;2022-10-16T16:51:24;17.10;1.00
3846;DHT22;1938;50.812;7.738;2022-10-16T16:53:53;17.10;99.90
3846;DHT22;1938;50.812;7.738;2022-10-16T16:56:20;17.00;99.90
3846;DHT22;1938;50.812;7.738;2022-10-16T16:58:51;17.00;99.90
3846;DHT22;1938;50.812;7.738;2022-10-16T17:01:17;17.00;99.90
3846;DHT22;1938;50.812;7.738;2022-10-16T17:03:44;16.90;99.90
3846;DHT22;1938;50.812;7.738;2022-10-16T17:06:10;16.90;99.90
3846;DHT22;1938;50.812;7.738;2022-10-16T17:08:38;16.90;1.00
3846;DHT22;1938;50.812;7.738;2022-10-16T17:11:05;17.00;1.00
3846;DHT22;1938;50.812;7.738;2022-10-16T17:13:33;16.80;1.00
3846;DHT22;1938;50.812;7.738;2022-10-16T17:16:02;16.80;1.00
3846;DHT22;1938;50.812;7.738;2022-10-16T17:18:27;16.80;1.00
3846;DHT22;1938;50.812;7.738;2022-10-16T17:20:53;16.70;5.70
3846;DHT22;1938;50.812;7.738;2022-10-16T17:23:19;16.60;43.00
3846;DHT22;1938;50.812;7.738;2022-10-16T17:25:45;16.60;74.20
3846;DHT22;1938;50.812;7.738;2022-10-16T17:28:12;16.50;72.10
3846;DHT22;1938;50.812;7.738;2022-10-16T17:30:39;16.50;95.30
3846;DHT22;1938;50.812;7.738;2022-10-16T17:33:06;16.40;99.90
3846;DHT22;1938;50.812;7.738;2022-10-16T17:35:42;16.40;99.90
3846;DHT22;1938;50.812;7.738;2022-10-16T17:38:09;16.40;99.90
3846;DHT22;1938;50.812;7.738;2022-10-16T17:40:35;16.30;99.90
3846;DHT22;1938;50.812;7.738;2022-10-16T17:43:01;16.30;99.90
3846;DHT22;1938;50.812;7.738;2022-10-16T17:45:27;16.30;99.90
3846;DHT22;1938;50.812;7.738;2022-10-16T17:47:53;16.30;99.90
3846;DHT22;1938;50.812;7.738;2022-10-16T17:50:19;16.30;99.90
3846;DHT22;1938;50.812;7.738;2022-10-16T17:52:44;16.30;99.90
3846;DHT22;1938;50.812;7.738;2022-10-16T17:55:10;16.30;99.90
3846;DHT22;1938;50.812;7.738;2022-10-16T17:57:36;16.20;99.90
3846;DHT22;1938;50.812;7.738;2022-10-16T18:00:03;16.30;99.90
3846;DHT22;1938;50.812;7.738;2022-10-16T18:02:30;16.30;99.90
3846;DHT22;1938;50.812;7.738;2022-10-16T18:04:56;16.30;99.90
3846;DHT22;1938;50.812;7.738;2022-10-16T18:07:21;16.30;99.90
3846;DHT22;1938;50.812;7.738;2022-10-16T18:09:47;16.30;99.90
3846;DHT22;1938;50.812;7.738;2022-10-16T18:12:13;16.30;99.90
3846;DHT22;1938;50.812;7.738;2022-10-16T18:14:39;16.20;99.90
3846;DHT22;1938;50.812;7.738;2022-10-16T18:17:05;16.10;99.90
3846;DHT22;1938;50.812;7.738;2022-10-16T18:19:31;16.10;99.90
3846;DHT22;1938;50.812;7.738;2022-10-16T18:21:57;16.00;99.90
3846;DHT22;1938;50.812;7.738;2022-10-16T18:24:24;15.90;99.90